sensor_id;sensor_type;location;lat;lon;timestamp;temperature;humidity
4054;DHT22;2042;47.956;9.222;2023-04-28T00:00:30;7.90;9.00
4054;DHT22;2042;47.956;9.222;2023-04-28T00:02:56;7.90;9.30
4054;DHT22;2042;47.956;9.222;2023-04-28T00:05:21;7.90;10.20
4054;DHT22;2042;47.956;9.222;2023-04-28T00:07:47;7.90;10.80
4054;DHT22;2042;47.956;9.222;2023-04-28T00:10:13;8.00;11.20
4054;DHT22;2042;47.956;9.222;2023-04-28T00:12:39;8.00;11.00
4054;DHT22;2042;47.956;9.222;2023-04-28T00:15:05;8.00;10.60
4054;DHT22;2042;47.956;9.222;2023-04-28T00:17:31;8.00;10.50
4054;DHT22;2042;47.956;9.222;2023-04-28T00:19:56;8.00;10.60
4054;DHT22;2042;47.956;9.222;2023-04-28T00:22:22;8.00;10.60
4054;DHT22;2042;47.956;9.222;2023-04-28T00:24:47;8.00;10.30
4054;DHT22;2042;47.956;9.222;2023-04-28T00:27:13;8.00;10.10
4054;DHT22;2042;47.956;9.222;2023-04-28T00:29:38;8.00;10.10
4054;DHT22;2042;47.956;9.222;2023-04-28T00:32:04;7.90;9.90
4054;DHT22;2042;47.956;9.222;2023-04-28T00:34:33;7.90;10.10
4054;DHT22;2042;47.956;9.222;2023-04-28T00:37:02;7.80;10.80
4054;DHT22;2042;47.956;9.222;2023-04-28T00:39:28;7.80;11.20
4054;DHT22;2042;47.956;9.222;2023-04-28T00:41:53;7.80;11.30
4054;DHT22;2042;47.956;9.222;2023-04-28T00:44:19;7.80;11.50
4054;DHT22;2042;47.956;9.222;2023-04-28T00:46:45;7.80;11.90
4054;DHT22;2042;47.956;9.222;2023-04-28T00:49:11;7.90;12.20
4054;DHT22;2042;47.956;9.222;2023-04-28T00:51:37;7.90;12.00
4054;DHT22;2042;47.956;9.222;2023-04-28T00:54:04;7.90;12.20
4054;DHT22;2042;47.956;9.222;2023-04-28T00:56:30;7.90;12.50
4054;DHT22;2042;47.956;9.222;2023-04-28T00:58:56;7.90;12.60
4054;DHT22;2042;47.956;9.222;2023-04-28T01:01:22;8.00;12.60
4054;DHT22;2042;47.956;9.222;2023-04-28T01:03:48;8.00;12.30
4054;DHT22;2042;47.956;9.222;2023-04-28T01:06:14;8.00;11.90
4054;DHT22;2042;47.956;9.222;2023-04-28T01:08:41;8.00;11.50
4054;DHT22;2042;47.956;9.222;2023-04-28T01:11:07;8.00;11.50
4054;DHT22;2042;47.956;9.222;2023-04-28T01:13:35;8.00;11.60
4054;DHT22;2042;47.956;9.222;2023-04-28T01:16:00;8.00;11.60
4054;DHT22;2042;47.956;9.222;2023-04-28T01:18:26;8.00;11.40
4054;DHT22;2042;47.956;9.222;2023-04-28T01:20:52;8.00;11.30
4054;DHT22;2042;47.956;9.222;2023-04-28T01:23:17;8.00;11.10
4054;DHT22;2042;47.956;9.222;2023-04-28T01:25:43;8.00;11.10
4054;DHT22;2042;47.956;9.222;2023-04-28T01:28:10;7.90;11.20
4054;DHT22;2042;47.956;9.222;2023-04-28T01:30:36;7.90;11.30
4054;DHT22;2042;47.956;9.222;2023-04-28T01:33:02;7.90;11.50
4054;DHT22;2042;47.956;9.222;2023-04-28T01:35:28;7.90;11.70
4054;DHT22;2042;47.956;9.222;2023-04-28T01:37:53;7.90;12.20
4054;DHT22;2042;47.956;9.222;2023-04-28T01:40:19;7.90;12.50
4054;DHT22;2042;47.956;9.222;2023-04-28T01:42:45;7.90;12.80
4054;DHT22;2042;47.956;9.222;2023-04-28T01:45:11;8.00;13.10
4054;DHT22;2042;47.956;9.222;2023-04-28T01:47:37;8.00;13.20
4054;DHT22;2042;47.956;9.222;2023-04-28T01:50:03;8.00;13.40
4054;DHT22;2042;47.956;9.222;2023-04-28T01:52:29;8.00;13.40
4054;DHT22;2042;47.956;9.222;2023-04-28T01:54:54;8.00;12.70
4054;DHT22;2042;47.956;9.222;2023-04-28T01:57:20;8.00;12.70
4054;DHT22;2042;47.956;9.222;2023-04-28T01:59:46;8.00;12.60
4054;DHT22;2042;47.956;9.222;2023-04-28T02:02:11;8.00;12.50
4054;DHT22;2042;47.956;9.222;2023-04-28T02:04:38;8.00;12.80
4054;DHT22;2042;47.956;9.222;2023-04-28T02:07:04;8.00;12.80
4054;DHT22;2042;47.956;9.222;2023-04-28T02:09:29;8.00;12.90
4054;DHT22;2042;47.956;9.222;2023-04-28T02:11:55;8.00;12.60
4054;DHT22;2042;47.956;9.222;2023-04-28T02:14:20;7.90;12.40
4054;DHT22;2042;47.956;9.222;2023-04-28T02:16:46;7.90;12.70
4054;DHT22;2042;47.956;9.222;2023-04-28T02:19:12;7.90;12.90
4054;DHT22;2042;47.956;9.222;2023-04-28T02:21:37;7.90;13.30
4054;DHT22;2042;47.956;9.222;2023-04-28T02:24:03;7.90;13.80
4054;DHT22;2042;47.956;9.222;2023-04-28T02:26:29;8.00;14.00
4054;DHT22;2042;47.956;9.222;2023-04-28T02:28:54;8.00;13.80
4054;DHT22;2042;47.956;9.222;2023-04-28T02:31:20;8.00;13.80
4054;DHT22;2042;47.956;9.222;2023-04-28T02:33:46;8.00;13.70
4054;DHT22;2042;47.956;9.222;2023-04-28T02:36:12;8.10;13.70
4054;DHT22;2042;47.956;9.222;2023-04-28T02:38:38;8.10;13.50
4054;DHT22;2042;47.956;9.222;2023-04-28T02:41:06;8.10;13.50
4054;DHT22;2042;47.956;9.222;2023-04-28T02:43:34;8.20;13.70
4054;DHT22;2042;47.956;9.222;2023-04-28T02:46:01;8.20;13.40
4054;DHT22;2042;47.956;9.222;2023-04-28T02:48:27;8.20;12.80
4054;DHT22;2042;47.956;9.222;2023-04-28T02:50:52;8.10;12.50
4054;DHT22;2042;47.956;9.222;2023-04-28T02:53:19;8.10;13.00
4054;DHT22;2042;47.956;9.222;2023-04-28T02:55:44;8.00;13.10
4054;DHT22;2042;47.956;9.222;2023-04-28T02:58:10;8.00;13.60
4054;DHT22;2042;47.956;9.222;2023-04-28T03:00:36;8.00;14.60
4054;DHT22;2042;47.956;9.222;2023-04-28T03:03:02;8.00;15.10
4054;DHT22;2042;47.956;9.222;2023-04-28T03:05:28;8.00;14.90
4054;DHT22;2042;47.956;9.222;2023-04-28T03:07:53;8.00;14.90
4054;DHT22;2042;47.956;9.222;2023-04-28T03:10:19;8.00;14.80
4054;DHT22;2042;47.956;9.222;2023-04-28T03:12:45;8.00;15.30
4054;DHT22;2042;47.956;9.222;2023-04-28T03:15:10;8.00;15.90
4054;DHT22;2042;47.956;9.222;2023-04-28T03:17:36;8.00;15.90
4054;DHT22;2042;47.956;9.222;2023-04-28T03:20:04;8.00;15.80
4054;DHT22;2042;47.956;9.222;2023-04-28T03:22:30;8.00;15.90
4054;DHT22;2042;47.956;9.222;2023-04-28T03:24:55;8.00;15.90
4054;DHT22;2042;47.956;9.222;2023-04-28T03:27:21;8.00;16.00
4054;DHT22;2042;47.956;9.222;2023-04-28T03:29:47;8.10;16.10
4054;DHT22;2042;47.956;9.222;2023-04-28T03:32:12;8.10;16.20
4054;DHT22;2042;47.956;9.222;2023-04-28T03:34:38;8.10;16.10
4054;DHT22;2042;47.956;9.222;2023-04-28T03:37:04;8.10;15.80
4054;DHT22;2042;47.956;9.222;2023-04-28T03:39:29;8.00;15.90
4054;DHT22;2042;47.956;9.222;2023-04-28T03:41:56;8.00;16.10
4054;DHT22;2042;47.956;9.222;2023-04-28T03:44:21;8.00;16.40
4054;DHT22;2042;47.956;9.222;2023-04-28T03:46:48;8.00;17.80
4054;DHT22;2042;47.956;9.222;2023-04-28T03:49:14;8.00;18.80
4054;DHT22;2042;47.956;9.222;2023-04-28T03:51:40;8.10;19.40
4054;DHT22;2042;47.956;9.222;2023-04-28T03:54:05;8.10;19.90
4054;DHT22;2042;47.956;9.222;2023-04-28T03:56:31;8.10;20.20
4054;DHT22;2042;47.956;9.222;2023-04-28T03:58:57;8.20;20.70
4054;DHT22;2042;47.956;9.222;2023-04-28T04:01:23;8.20;21.10
4054;DHT22;2042;47.956;9.222;2023-04-28T04:03:49;8.30;21.50
4054;DHT22;2042;47.956;9.222;2023-04-28T04:06:14;8.30;21.90
4054;DHT22;2042;47.956;9.222;2023-04-28T04:08:40;8.40;22.10
4054;DHT22;2042;47.956;9.222;2023-04-28T04:11:06;8.40;22.30
4054;DHT22;2042;47.956;9.222;2023-04-28T04:13:32;8.50;22.50
4054;DHT22;2042;47.956;9.222;2023-04-28T04:15:58;8.50;22.60
4054;DHT22;2042;47.956;9.222;2023-04-28T04:18:23;8.50;22.70
4054;DHT22;2042;47.956;9.222;2023-04-28T04:20:49;8.50;22.80
4054;DHT22;2042;47.956;9.222;2023-04-28T04:23:15;8.50;23.00
4054;DHT22;2042;47.956;9.222;2023-04-28T04:25:41;8.60;23.30
4054;DHT22;2042;47.956;9.222;2023-04-28T04:28:07;8.60;23.50
4054;DHT22;2042;47.956;9.222;2023-04-28T04:30:33;8.60;23.60
4054;DHT22;2042;47.956;9.222;2023-04-28T04:32:58;8.60;23.70
4054;DHT22;2042;47.956;9.222;2023-04-28T04:35:24;8.60;23.80
4054;DHT22;2042;47.956;9.222;2023-04-28T04:37:50;8.60;23.80
4054;DHT22;2042;47.956;9.222;2023-04-28T04:40:15;8.60;23.90
4054;DHT22;2042;47.956;9.222;2023-04-28T04:42:41;8.70;24.10
4054;DHT22;2042;47.956;9.222;2023-04-28T04:45:07;8.70;24.20
4054;DHT22;2042;47.956;9.222;2023-04-28T04:47:33;8.70;24.40
4054;DHT22;2042;47.956;9.222;2023-04-28T04:49:59;8.70;24.80
4054;DHT22;2042;47.956;9.222;2023-04-28T04:52:24;8.70;24.90
4054;DHT22;2042;47.956;9.222;2023-04-28T04:54:50;8.70;25.20
4054;DHT22;2042;47.956;9.222;2023-04-28T04:57:16;8.70;25.40
4054;DHT22;2042;47.956;9.222;2023-04-28T04:59:42;8.70;25.70
4054;DHT22;2042;47.956;9.222;2023-04-28T05:02:07;8.70;26.00
4054;DHT22;2042;47.956;9.222;2023-04-28T05:04:33;8.70;26.30
4054;DHT22;2042;47.956;9.222;2023-04-28T05:06:59;8.70;26.50
4054;DHT22;2042;47.956;9.222;2023-04-28T05:09:24;8.70;26.80
4054;DHT22;2042;47.956;9.222;2023-04-28T05:11:50;8.80;27.10
4054;DHT22;2042;47.956;9.222;2023-04-28T05:14:15;8.80;27.30
4054;DHT22;2042;47.956;9.222;2023-04-28T05:16:41;8.80;27.40
4054;DHT22;2042;47.956;9.222;2023-04-28T05:19:07;8.80;27.40
4054;DHT22;2042;47.956;9.222;2023-04-28T05:21:33;8.90;27.70
4054;DHT22;2042;47.956;9.222;2023-04-28T05:23:58;8.90;27.90
4054;DHT22;2042;47.956;9.222;2023-04-28T05:26:24;8.90;28.00
4054;DHT22;2042;47.956;9.222;2023-04-28T05:28:50;8.90;28.20
4054;DHT22;2042;47.956;9.222;2023-04-28T05:31:16;9.00;28.40
4054;DHT22;2042;47.956;9.222;2023-04-28T05:33:42;9.00;28.70
4054;DHT22;2042;47.956;9.222;2023-04-28T05:36:08;9.00;28.80
4054;DHT22;2042;47.956;9.222;2023-04-28T05:38:34;9.10;28.90
4054;DHT22;2042;47.956;9.222;2023-04-28T05:41:01;9.10;28.90
4054;DHT22;2042;47.956;9.222;2023-04-28T05:43:26;9.10;29.00
4054;DHT22;2042;47.956;9.222;2023-04-28T05:45:52;9.10;29.10
4054;DHT22;2042;47.956;9.222;2023-04-28T05:48:18;9.10;29.30
4054;DHT22;2042;47.956;9.222;2023-04-28T05:50:44;9.10;29.50
4054;DHT22;2042;47.956;9.222;2023-04-28T05:53:10;9.10;29.60
4054;DHT22;2042;47.956;9.222;2023-04-28T05:55:35;9.20;29.40
4054;DHT22;2042;47.956;9.222;2023-04-28T05:58:02;9.20;29.90
4054;DHT22;2042;47.956;9.222;2023-04-28T06:00:27;9.20;29.90
4054;DHT22;2042;47.956;9.222;2023-04-28T06:02:53;9.20;30.00
4054;DHT22;2042;47.956;9.222;2023-04-28T06:05:19;9.20;30.00
4054;DHT22;2042;47.956;9.222;2023-04-28T06:07:45;9.20;30.20
4054;DHT22;2042;47.956;9.222;2023-04-28T06:10:30;9.30;30.60
4054;DHT22;2042;47.956;9.222;2023-04-28T06:12:56;9.30;30.70
4054;DHT22;2042;47.956;9.222;2023-04-28T06:15:22;9.40;30.90
4054;DHT22;2042;47.956;9.222;2023-04-28T06:17:47;9.40;30.80
4054;DHT22;2042;47.956;9.222;2023-04-28T06:20:13;9.40;31.10
4054;DHT22;2042;47.956;9.222;2023-04-28T06:22:39;9.40;31.40
4054;DHT22;2042;47.956;9.222;2023-04-28T06:25:06;9.40;31.50
4054;DHT22;2042;47.956;9.222;2023-04-28T06:27:31;9.40;31.60
4054;DHT22;2042;47.956;9.222;2023-04-28T06:29:58;9.50;31.70
4054;DHT22;2042;47.956;9.222;2023-04-28T06:32:23;9.60;31.90
4054;DHT22;2042;47.956;9.222;2023-04-28T06:34:49;9.60;32.00
4054;DHT22;2042;47.956;9.222;2023-04-28T06:37:15;9.60;32.00
4054;DHT22;2042;47.956;9.222;2023-04-28T06:39:40;9.60;31.80
4054;DHT22;2042;47.956;9.222;2023-04-28T06:42:06;9.60;31.70
4054;DHT22;2042;47.956;9.222;2023-04-28T06:44:31;9.60;31.70
4054;DHT22;2042;47.956;9.222;2023-04-28T06:46:57;9.60;31.70
4054;DHT22;2042;47.956;9.222;2023-04-28T06:49:23;9.60;31.80
4054;DHT22;2042;47.956;9.222;2023-04-28T06:51:48;9.60;31.80
4054;DHT22;2042;47.956;9.222;2023-04-28T06:54:14;9.60;31.80
4054;DHT22;2042;47.956;9.222;2023-04-28T06:56:40;9.60;32.00
4054;DHT22;2042;47.956;9.222;2023-04-28T06:59:06;9.70;32.50
4054;DHT22;2042;47.956;9.222;2023-04-28T07:01:32;9.80;33.00
4054;DHT22;2042;47.956;9.222;2023-04-28T07:03:58;9.80;33.10
4054;DHT22;2042;47.956;9.222;2023-04-28T07:06:24;9.80;32.60
4054;DHT22;2042;47.956;9.222;2023-04-28T07:08:52;9.80;32.40
4054;DHT22;2042;47.956;9.222;2023-04-28T07:11:18;9.80;32.50
4054;DHT22;2042;47.956;9.222;2023-04-28T07:13:43;9.80;32.40
4054;DHT22;2042;47.956;9.222;2023-04-28T07:16:13;9.80;32.60
4054;DHT22;2042;47.956;9.222;2023-04-28T07:18:39;9.80;32.60
4054;DHT22;2042;47.956;9.222;2023-04-28T07:21:05;9.90;33.70
4054;DHT22;2042;47.956;9.222;2023-04-28T07:23:31;10.00;33.10
4054;DHT22;2042;47.956;9.222;2023-04-28T07:25:56;10.10;33.30
4054;DHT22;2042;47.956;9.222;2023-04-28T07:28:23;10.10;32.90
4054;DHT22;2042;47.956;9.222;2023-04-28T07:30:48;10.10;32.30
4054;DHT22;2042;47.956;9.222;2023-04-28T07:33:14;10.10;32.00
4054;DHT22;2042;47.956;9.222;2023-04-28T07:35:40;10.20;32.70
4054;DHT22;2042;47.956;9.222;2023-04-28T07:38:05;10.20;33.00
4054;DHT22;2042;47.956;9.222;2023-04-28T07:40:31;10.30;33.20
4054;DHT22;2042;47.956;9.222;2023-04-28T07:42:57;10.30;32.50
4054;DHT22;2042;47.956;9.222;2023-04-28T07:45:23;10.30;32.20
4054;DHT22;2042;47.956;9.222;2023-04-28T07:47:48;10.40;32.90
4054;DHT22;2042;47.956;9.222;2023-04-28T07:50:14;10.40;32.70
4054;DHT22;2042;47.956;9.222;2023-04-28T07:52:40;10.50;33.20
4054;DHT22;2042;47.956;9.222;2023-04-28T07:55:06;10.50;32.00
4054;DHT22;2042;47.956;9.222;2023-04-28T07:57:31;10.50;32.30
4054;DHT22;2042;47.956;9.222;2023-04-28T07:59:57;10.50;31.60
4054;DHT22;2042;47.956;9.222;2023-04-28T08:02:23;10.50;31.60
4054;DHT22;2042;47.956;9.222;2023-04-28T08:04:48;10.50;31.50
4054;DHT22;2042;47.956;9.222;2023-04-28T08:07:14;10.50;31.00
4054;DHT22;2042;47.956;9.222;2023-04-28T08:09:40;10.50;30.60
4054;DHT22;2042;47.956;9.222;2023-04-28T08:12:08;10.40;30.90
4054;DHT22;2042;47.956;9.222;2023-04-28T08:14:34;10.40;31.60
4054;DHT22;2042;47.956;9.222;2023-04-28T08:17:00;10.40;31.20
4054;DHT22;2042;47.956;9.222;2023-04-28T08:19:25;10.40;31.10
4054;DHT22;2042;47.956;9.222;2023-04-28T08:21:51;10.40;31.50
4054;DHT22;2042;47.956;9.222;2023-04-28T08:24:17;10.40;31.60
4054;DHT22;2042;47.956;9.222;2023-04-28T08:26:42;10.40;32.20
4054;DHT22;2042;47.956;9.222;2023-04-28T08:29:08;10.50;32.80
4054;DHT22;2042;47.956;9.222;2023-04-28T08:31:34;10.60;33.10
4054;DHT22;2042;47.956;9.222;2023-04-28T08:33:59;10.60;32.90
4054;DHT22;2042;47.956;9.222;2023-04-28T08:36:25;10.70;33.50
4054;DHT22;2042;47.956;9.222;2023-04-28T08:38:56;10.80;34.40
4054;DHT22;2042;47.956;9.222;2023-04-28T08:41:23;11.00;35.40
4054;DHT22;2042;47.956;9.222;2023-04-28T08:43:50;11.10;35.10
4054;DHT22;2042;47.956;9.222;2023-04-28T08:46:17;11.20;35.10
4054;DHT22;2042;47.956;9.222;2023-04-28T08:48:45;11.30;34.60
4054;DHT22;2042;47.956;9.222;2023-04-28T08:51:15;11.40;34.40
4054;DHT22;2042;47.956;9.222;2023-04-28T08:53:44;11.60;34.70
4054;DHT22;2042;47.956;9.222;2023-04-28T08:56:15;11.80;35.10
4054;DHT22;2042;47.956;9.222;2023-04-28T08:58:41;12.00;36.30
4054;DHT22;2042;47.956;9.222;2023-04-28T09:01:07;12.30;34.90
4054;DHT22;2042;47.956;9.222;2023-04-28T09:03:33;12.30;32.00
4054;DHT22;2042;47.956;9.222;2023-04-28T09:06:00;12.30;29.10
4054;DHT22;2042;47.956;9.222;2023-04-28T09:08:26;12.30;26.20
4054;DHT22;2042;47.956;9.222;2023-04-28T09:11:09;12.20;25.80
4054;DHT22;2042;47.956;9.222;2023-04-28T09:13:35;12.30;27.40
4054;DHT22;2042;47.956;9.222;2023-04-28T09:16:02;12.30;26.20
4054;DHT22;2042;47.956;9.222;2023-04-28T09:18:28;12.50;26.70
4054;DHT22;2042;47.956;9.222;2023-04-28T09:21:09;12.50;24.90
4054;DHT22;2042;47.956;9.222;2023-04-28T09:23:55;12.60;22.20
4054;DHT22;2042;47.956;9.222;2023-04-28T09:26:21;12.50;21.30
4054;DHT22;2042;47.956;9.222;2023-04-28T09:28:47;12.70;22.20
4054;DHT22;2042;47.956;9.222;2023-04-28T09:31:31;12.70;20.00
4054;DHT22;2042;47.956;9.222;2023-04-28T09:33:57;12.70;19.10
4054;DHT22;2042;47.956;9.222;2023-04-28T09:36:27;12.70;16.70
4054;DHT22;2042;47.956;9.222;2023-04-28T09:38:57;12.60;14.80
4054;DHT22;2042;47.956;9.222;2023-04-28T09:41:38;12.50;15.00
4054;DHT22;2042;47.956;9.222;2023-04-28T09:44:19;12.40;14.20
4054;DHT22;2042;47.956;9.222;2023-04-28T09:46:46;12.30;14.50
4054;DHT22;2042;47.956;9.222;2023-04-28T09:49:13;12.20;15.50
4054;DHT22;2042;47.956;9.222;2023-04-28T09:51:39;12.20;18.00
4054;DHT22;2042;47.956;9.222;2023-04-28T09:54:05;12.20;17.40
4054;DHT22;2042;47.956;9.222;2023-04-28T09:56:33;12.20;17.50
4054;DHT22;2042;47.956;9.222;2023-04-28T09:59:02;12.20;16.20
4054;DHT22;2042;47.956;9.222;2023-04-28T10:01:39;12.10;16.30
4054;DHT22;2042;47.956;9.222;2023-04-28T10:04:05;12.10;17.10
4054;DHT22;2042;47.956;9.222;2023-04-28T10:06:33;12.10;18.00
4054;DHT22;2042;47.956;9.222;2023-04-28T10:09:01;12.20;18.00
4054;DHT22;2042;47.956;9.222;2023-04-28T10:11:27;12.20;17.40
4054;DHT22;2042;47.956;9.222;2023-04-28T10:13:53;12.20;17.00
4054;DHT22;2042;47.956;9.222;2023-04-28T10:16:19;12.20;18.20
4054;DHT22;2042;47.956;9.222;2023-04-28T10:18:46;12.30;18.70
4054;DHT22;2042;47.956;9.222;2023-04-28T10:21:16;12.30;17.70
4054;DHT22;2042;47.956;9.222;2023-04-28T10:29:01;12.50;17.70
4054;DHT22;2042;47.956;9.222;2023-04-28T10:31:27;12.60;17.60
4054;DHT22;2042;47.956;9.222;2023-04-28T10:33:53;12.70;18.40
4054;DHT22;2042;47.956;9.222;2023-04-28T10:39:14;12.90;18.60
4054;DHT22;2042;47.956;9.222;2023-04-28T10:41:41;13.00;18.80
4054;DHT22;2042;47.956;9.222;2023-04-28T10:55:36;13.20;15.10
4054;DHT22;2042;47.956;9.222;2023-04-28T11:00:48;13.80;15.60
4054;DHT22;2042;47.956;9.222;2023-04-28T11:03:47;14.00;12.90
4054;DHT22;2042;47.956;9.222;2023-04-28T11:06:23;14.10;11.50
4054;DHT22;2042;47.956;9.222;2023-04-28T11:08:57;14.10;7.20
4054;DHT22;2042;47.956;9.222;2023-04-28T11:11:25;14.20;8.40
4054;DHT22;2042;47.956;9.222;2023-04-28T11:13:53;14.30;4.30
4054;DHT22;2042;47.956;9.222;2023-04-28T11:16:23;14.40;5.90
4054;DHT22;2042;47.956;9.222;2023-04-28T11:18:58;14.70;4.40
4054;DHT22;2042;47.956;9.222;2023-04-28T11:21:25;14.70;1.00
4054;DHT22;2042;47.956;9.222;2023-04-28T11:23:53;14.80;1.00
4054;DHT22;2042;47.956;9.222;2023-04-28T11:26:19;15.00;1.90
4054;DHT22;2042;47.956;9.222;2023-04-28T11:28:49;15.00;1.00
4054;DHT22;2042;47.956;9.222;2023-04-28T11:31:16;14.90;1.00
4054;DHT22;2042;47.956;9.222;2023-04-28T11:33:57;14.80;1.00
4054;DHT22;2042;47.956;9.222;2023-04-28T11:36:24;14.80;1.00
4054;DHT22;2042;47.956;9.222;2023-04-28T11:38:51;14.70;1.00
4054;DHT22;2042;47.956;9.222;2023-04-28T11:41:16;14.80;1.00
4054;DHT22;2042;47.956;9.222;2023-04-28T11:43:42;15.00;1.00
4054;DHT22;2042;47.956;9.222;2023-04-28T11:46:08;15.50;1.00
4054;DHT22;2042;47.956;9.222;2023-04-28T11:48:34;16.10;1.00
4054;DHT22;2042;47.956;9.222;2023-04-28T11:50:59;16.50;1.00
4054;DHT22;2042;47.956;9.222;2023-04-28T11:53:45;16.80;1.00
4054;DHT22;2042;47.956;9.222;2023-04-28T11:56:10;17.10;1.00
4054;DHT22;2042;47.956;9.222;2023-04-28T11:58:38;17.40;1.00
4054;DHT22;2042;47.956;9.222;2023-04-28T12:01:11;17.50;1.00
4054;DHT22;2042;47.956;9.222;2023-04-28T12:03:45;17.30;1.00
4054;DHT22;2042;47.956;9.222;2023-04-28T12:06:11;16.90;1.00
4054;DHT22;2042;47.956;9.222;2023-04-28T12:08:37;16.90;1.00
4054;DHT22;2042;47.956;9.222;2023-04-28T12:11:13;17.20;1.00
4054;DHT22;2042;47.956;9.222;2023-04-28T12:13:40;17.30;1.00
4054;DHT22;2042;47.956;9.222;2023-04-28T12:16:06;17.20;1.00
4054;DHT22;2042;47.956;9.222;2023-04-28T12:18:33;17.00;1.00
4054;DHT22;2042;47.956;9.222;2023-04-28T12:21:00;17.00;1.00
4054;DHT22;2042;47.956;9.222;2023-04-28T12:25:56;17.30;1.00
4054;DHT22;2042;47.956;9.222;2023-04-28T12:28:23;17.60;1.00
4054;DHT22;2042;47.956;9.222;2023-04-28T12:30:49;17.70;1.00
4054;DHT22;2042;47.956;9.222;2023-04-28T12:33:25;17.90;1.00
4054;DHT22;2042;47.956;9.222;2023-04-28T12:35:52;18.40;1.00
4054;DHT22;2042;47.956;9.222;2023-04-28T12:38:19;19.00;1.00
4054;DHT22;2042;47.956;9.222;2023-04-28T12:40:44;19.60;1.00
4054;DHT22;2042;47.956;9.222;2023-04-28T12:43:11;20.00;1.00
4054;DHT22;2042;47.956;9.222;2023-04-28T12:45:36;20.20;1.00
4054;DHT22;2042;47.956;9.222;2023-04-28T12:48:02;19.80;1.00
4054;DHT22;2042;47.956;9.222;2023-04-28T12:50:28;19.20;1.00
4054;DHT22;2042;47.956;9.222;2023-04-28T12:52:56;19.20;1.00
4054;DHT22;2042;47.956;9.222;2023-04-28T12:55:22;19.30;1.00
4054;DHT22;2042;47.956;9.222;2023-04-28T12:57:48;19.00;1.00
4054;DHT22;2042;47.956;9.222;2023-04-28T13:00:13;18.90;1.00
4054;DHT22;2042;47.956;9.222;2023-04-28T13:02:42;19.70;1.00
4054;DHT22;2042;47.956;9.222;2023-04-28T13:05:09;20.20;1.00
4054;DHT22;2042;47.956;9.222;2023-04-28T13:07:35;20.30;1.00
4054;DHT22;2042;47.956;9.222;2023-04-28T13:10:01;20.00;1.00
4054;DHT22;2042;47.956;9.222;2023-04-28T13:12:26;19.40;1.00
4054;DHT22;2042;47.956;9.222;2023-04-28T13:14:52;19.10;1.00
4054;DHT22;2042;47.956;9.222;2023-04-28T13:17:17;18.50;1.00
4054;DHT22;2042;47.956;9.222;2023-04-28T13:19:43;18.20;1.00
4054;DHT22;2042;47.956;9.222;2023-04-28T13:22:09;18.70;1.00
4054;DHT22;2042;47.956;9.222;2023-04-28T13:24:34;19.60;1.00
4054;DHT22;2042;47.956;9.222;2023-04-28T13:27:00;20.10;1.00
4054;DHT22;2042;47.956;9.222;2023-04-28T13:29:34;21.00;1.00
4054;DHT22;2042;47.956;9.222;2023-04-28T13:32:00;21.00;1.00
4054;DHT22;2042;47.956;9.222;2023-04-28T13:34:26;20.60;1.00
4054;DHT22;2042;47.956;9.222;2023-04-28T13:36:52;20.20;1.00
4054;DHT22;2042;47.956;9.222;2023-04-28T13:39:19;19.70;1.00
4054;DHT22;2042;47.956;9.222;2023-04-28T13:41:46;19.50;1.00
4054;DHT22;2042;47.956;9.222;2023-04-28T13:44:15;19.40;1.00
4054;DHT22;2042;47.956;9.222;2023-04-28T13:46:41;19.40;1.00
4054;DHT22;2042;47.956;9.222;2023-04-28T13:49:08;19.90;1.00
4054;DHT22;2042;47.956;9.222;2023-04-28T13:51:34;20.10;1.00
4054;DHT22;2042;47.956;9.222;2023-04-28T13:54:00;19.40;1.00
4054;DHT22;2042;47.956;9.222;2023-04-28T13:56:30;18.70;1.00
4054;DHT22;2042;47.956;9.222;2023-04-28T13:58:56;18.40;1.00
4054;DHT22;2042;47.956;9.222;2023-04-28T14:01:22;18.10;1.00
4054;DHT22;2042;47.956;9.222;2023-04-28T14:03:48;17.80;1.00
4054;DHT22;2042;47.956;9.222;2023-04-28T14:06:13;17.60;1.00
4054;DHT22;2042;47.956;9.222;2023-04-28T14:08:39;17.30;1.00
4054;DHT22;2042;47.956;9.222;2023-04-28T14:11:05;17.50;1.00
4054;DHT22;2042;47.956;9.222;2023-04-28T14:13:30;18.10;1.00
4054;DHT22;2042;47.956;9.222;2023-04-28T14:15:57;19.50;1.00
4054;DHT22;2042;47.956;9.222;2023-04-28T14:18:23;20.50;1.00
4054;DHT22;2042;47.956;9.222;2023-04-28T14:20:48;20.80;1.00
4054;DHT22;2042;47.956;9.222;2023-04-28T14:23:14;20.60;1.00
4054;DHT22;2042;47.956;9.222;2023-04-28T14:25:40;19.90;1.00
4054;DHT22;2042;47.956;9.222;2023-04-28T14:28:07;19.20;1.00
4054;DHT22;2042;47.956;9.222;2023-04-28T14:30:33;18.90;1.00
4054;DHT22;2042;47.956;9.222;2023-04-28T14:32:58;18.80;1.00
4054;DHT22;2042;47.956;9.222;2023-04-28T14:35:24;18.70;1.00
4054;DHT22;2042;47.956;9.222;2023-04-28T14:37:51;18.60;1.00
4054;DHT22;2042;47.956;9.222;2023-04-28T14:40:18;18.50;1.00
4054;DHT22;2042;47.956;9.222;2023-04-28T14:42:44;18.30;1.00
4054;DHT22;2042;47.956;9.222;2023-04-28T14:45:10;18.30;1.00
4054;DHT22;2042;47.956;9.222;2023-04-28T14:47:37;18.30;1.00
4054;DHT22;2042;47.956;9.222;2023-04-28T14:50:03;18.40;1.00
4054;DHT22;2042;47.956;9.222;2023-04-28T14:52:30;18.40;1.00
4054;DHT22;2042;47.956;9.222;2023-04-28T14:54:57;18.30;1.00
4054;DHT22;2042;47.956;9.222;2023-04-28T14:57:24;18.10;1.00
4054;DHT22;2042;47.956;9.222;2023-04-28T14:59:50;17.90;1.00
4054;DHT22;2042;47.956;9.222;2023-04-28T15:02:20;18.20;1.00
4054;DHT22;2042;47.956;9.222;2023-04-28T15:04:51;18.80;1.00
4054;DHT22;2042;47.956;9.222;2023-04-28T15:07:16;19.30;1.00
4054;DHT22;2042;47.956;9.222;2023-04-28T15:09:42;19.30;1.00
4054;DHT22;2042;47.956;9.222;2023-04-28T15:12:08;18.90;1.00
4054;DHT22;2042;47.956;9.222;2023-04-28T15:14:34;18.50;1.00
4054;DHT22;2042;47.956;9.222;2023-04-28T15:16:59;18.30;1.00
4054;DHT22;2042;47.956;9.222;2023-04-28T15:19:25;18.10;1.00
4054;DHT22;2042;47.956;9.222;2023-04-28T15:21:51;17.80;1.00
4054;DHT22;2042;47.956;9.222;2023-04-28T15:24:18;17.80;1.00
4054;DHT22;2042;47.956;9.222;2023-04-28T15:26:45;17.80;1.00
4054;DHT22;2042;47.956;9.222;2023-04-28T15:29:11;17.80;1.00
4054;DHT22;2042;47.956;9.222;2023-04-28T15:31:37;17.70;1.00
4054;DHT22;2042;47.956;9.222;2023-04-28T15:34:04;17.50;1.00
4054;DHT22;2042;47.956;9.222;2023-04-28T15:36:29;17.20;1.00
4054;DHT22;2042;47.956;9.222;2023-04-28T15:38:56;16.80;1.00
4054;DHT22;2042;47.956;9.222;2023-04-28T15:41:22;16.60;1.00
4054;DHT22;2042;47.956;9.222;2023-04-28T15:43:48;16.60;1.00
4054;DHT22;2042;47.956;9.222;2023-04-28T15:46:15;16.90;1.00
4054;DHT22;2042;47.956;9.222;2023-04-28T15:48:42;17.60;1.00
4054;DHT22;2042;47.956;9.222;2023-04-28T15:51:09;18.10;1.00
4054;DHT22;2042;47.956;9.222;2023-04-28T15:53:35;19.00;1.00
4054;DHT22;2042;47.956;9.222;2023-04-28T15:56:02;19.50;1.00
4054;DHT22;2042;47.956;9.222;2023-04-28T15:58:28;19.60;1.00
4054;DHT22;2042;47.956;9.222;2023-04-28T16:00:54;19.40;1.00
4054;DHT22;2042;47.956;9.222;2023-04-28T16:03:20;19.10;1.00
4054;DHT22;2042;47.956;9.222;2023-04-28T16:05:45;18.90;1.00
4054;DHT22;2042;47.956;9.222;2023-04-28T16:08:11;19.00;1.00
4054;DHT22;2042;47.956;9.222;2023-04-28T16:10:38;19.20;1.00
4054;DHT22;2042;47.956;9.222;2023-04-28T16:13:07;19.50;1.00
4054;DHT22;2042;47.956;9.222;2023-04-28T16:15:35;19.80;1.00
4054;DHT22;2042;47.956;9.222;2023-04-28T16:18:01;20.00;1.00
4054;DHT22;2042;47.956;9.222;2023-04-28T16:20:27;20.00;1.00
4054;DHT22;2042;47.956;9.222;2023-04-28T16:22:56;19.60;1.00
4054;DHT22;2042;47.956;9.222;2023-04-28T16:25:22;19.20;1.00
4054;DHT22;2042;47.956;9.222;2023-04-28T16:27:48;18.80;1.00
4054;DHT22;2042;47.956;9.222;2023-04-28T16:30:13;18.50;1.00
4054;DHT22;2042;47.956;9.222;2023-04-28T16:32:39;18.40;1.00
4054;DHT22;2042;47.956;9.222;2023-04-28T16:35:05;18.50;1.00